Flight Track Log - Related Links

Times and Time Zones

All times are in EDT time to prevent confusion due to time zone crossing. See the AWE1092 flight status page for this flight to view local times or setup timezone preferences in your user account.

Time Position Orientation Groundspeed Altitude Reporting Facility
EDT Latitude Longitude Course Direction KTS MPH feet Rate Location/Type
Fri 09:44:27 AM 39.8667 -75.2833 185° South 152 175 1,000  Level Philadelphia TRACON
Fri 09:45:27 AM 39.8167 -75.3167 207° Southwest 218 251 2,700 2,772 Climbing Philadelphia TRACON
Fri 09:47:00 AM 39.5364 -75.3094 189° South  Level FlightAware Approximate
Fri 09:47:18 AM 39.7072 -75.3703 201° Southwest 255 293 8,900  Level Washington Center
Fri 09:48:00 AM 39.4521 -75.3326 194° South  Level FlightAware Approximate
Fri 09:48:18 AM 39.6258 -75.3706 180° South 271 312 10,900  Level Washington Center
Fri 09:49:00 AM 39.3661 -75.3408 185° South  Level FlightAware Approximate
Fri 09:49:18 AM 39.5319 -75.3736 181° South 308 354 13,300  Level Washington Center
Fri 09:50:19 AM 39.4278 -75.3767 181° South 339 390 15,900 1,815 Climbing Washington Center
Fri 09:51:17 AM 39.3217 -75.3797 181° South 373 429 16,900 504 Climbing Washington Center
Fri 09:52:18 AM 39.2175 -75.3825 181° South 385 443 16,900 246 Level Washington Center
Fri 09:53:19 AM 39.1092 -75.3964 186° South 385 443 17,400 1,279 Climbing Washington Center
Fri 09:54:20 AM 39.0028 -75.4128 187° South 385 443 19,500 2,186 Climbing Washington Center
Fri 09:55:17 AM 38.8922 -75.4289 186° South 390 449 21,700 2,085 Climbing Washington Center
Fri 09:56:18 AM 38.7778 -75.4478 187° South 397 457 23,600 1,770 Climbing Washington Center
Fri 09:57:19 AM 38.6608 -75.4667 187° South 418 481 25,300 1,190 Climbing Washington Center
Fri 09:58:19 AM 38.5400 -75.4828 186° South 431 496 26,000 350 Climbing Washington Center
Fri 09:59:19 AM 38.4211 -75.5017 187° South 436 502 26,000  Level Washington Center
Fri 10:00:17 AM 38.3067 -75.5442 196° South 436 502 26,000  Level Washington Center
Fri 10:01:20 AM 38.2147 -75.6286 216° Southwest 421 484 26,000  Level Washington Center
Fri 10:02:18 AM 38.1231 -75.7158 217° Southwest 415 478 26,000  Level Washington Center
Fri 10:03:18 AM 38.0333 -75.8053 218° Southwest 415 478 26,000  Level Washington Center
Fri 10:04:19 AM 37.9372 -75.8867 214° Southwest 415 478 26,000  Level Washington Center
Fri 10:05:17 AM 37.8453 -75.9706 216° Southwest 415 478 26,000  Level Washington Center
Fri 10:06:18 AM 37.7531 -76.0592 217° Southwest 415 478 26,000 -246 Level Washington Center
Fri 10:07:19 AM 37.6631 -76.1400 215° Southwest 415 478 25,500 -689 Descending Washington Center
Fri 10:08:20 AM 37.5667 -76.2233 214° Southwest 415 478 24,600 -763 Descending Washington Center
Fri 10:09:17 AM 37.4767 -76.3036 215° Southwest 415 478 24,000 -303 Descending Washington Center
Fri 10:10:19 AM 37.3842 -76.3839 215° Southwest 410 472 24,000  Level Washington Center
Fri 10:11:17 AM 37.2939 -76.4664 216° Southwest 404 465 24,000 -51 Level Washington Center
Fri 10:12:17 AM 37.2183 -76.5569 224° Southwest 399 459 23,900 -595 Descending Washington Center
Fri 10:13:18 AM 37.1528 -76.6628 232° Southwest 389 448 22,800 -950 Descending Washington Center
Fri 10:14:17 AM 37.0850 -76.7661 231° Southwest 389 448 22,000 -403 Descending Washington Center
Fri 10:15:17 AM 37.0214 -76.8692 232° Southwest 389 448 22,000  Level Washington Center
Fri 10:16:18 AM 36.9556 -76.9694 231° Southwest 389 448 22,000  Level Washington Center
Fri 10:17:19 AM 36.8897 -77.0722 231° Southwest 389 448 22,000  Level Washington Center
Fri 10:18:19 AM 36.8217 -77.1719 230° Southwest 389 448 22,000  Level Washington Center
Fri 10:19:17 AM 36.7597 -77.2719 232° Southwest 383 441 22,000  Level Washington Center
Fri 10:20:18 AM 36.6936 -77.3767 232° Southwest 383 441 22,000  Level Washington Center
Fri 10:21:18 AM 36.6275 -77.4761 230° Southwest 383 441 22,000  Level Washington Center
Fri 10:22:19 AM 36.5611 -77.5753 230° Southwest 383 441 22,000 -645 Level Washington Center
Fri 10:23:19 AM 36.4969 -77.6744 231° Southwest 383 441 20,700 -1,350 Descending Washington Center
Fri 10:24:19 AM 36.4325 -77.7733 231° Southwest 383 441 19,300 -1,271 Descending Washington Center
Fri 10:25:17 AM 36.3703 -77.8722 232° Southwest 378 435 18,200 -1,664 Descending Washington Center
Fri 10:26:18 AM 36.3078 -77.9658 230° Southwest 370 426 16,000 -1,881 Descending Washington Center
Fri 10:27:15 AM 36.2456 -78.0542 229° Southwest 343 395 14,500 -984 Descending Washington Center
Fri 10:28:20 AM 36.1853 -78.1450 231° Southwest 355 409 14,000 -587 Descending Washington Center
Fri 10:28:47 AM 36.1569 -78.1928 234° Southwest 342 394 13,600 -1,579 Descending Washington Center
Fri 10:29:17 AM 36.1350 -78.2436 242° Southwest 338 389 12,500 -1,778 Descending Washington Center
Fri 10:29:41 AM 36.1178 -78.2764 237° Southwest 323 372 12,000 -1,041 Descending Washington Center
Fri 10:31:18 AM 36.0519 -78.4156 240° Southwest 295 339 10,400 -934 Descending Washington Center
Fri 10:31:43 AM 36.0322 -78.4508 235° Southwest 275 316 10,100 -787 Descending Washington Center
Fri 10:32:19 AM 36.0122 -78.4989 243° Southwest 285 328 9,600 -778 Descending Washington Center
Fri 10:32:37 AM 35.9950 -78.5264 232° Southwest 278 320 9,400 -800 Descending Washington Center
Fri 10:33:19 AM 35.9583 -78.5686 223° Southwest 285 328 8,800 -833 Descending Washington Center
Fri 10:33:49 AM 35.9283 -78.5983 219° Southwest 270 311 8,400 -724 Descending Washington Center
Fri 10:34:17 AM 35.9069 -78.6258 226° Southwest 273 314 8,100 -393 Descending Washington Center
Fri 10:34:50 AM 35.8772 -78.6478 211° Southwest 241 277 8,000 -98 Descending Washington Center
Fri 10:35:18 AM 35.8536 -78.6725 220° Southwest 251 289 8,000 -627 Level Washington Center
Fri 10:35:57 AM 35.8192 -78.7069 219° Southwest 225 259 7,300 -1,300 Descending Washington Center
Fri 10:36:18 AM 35.8064 -78.7244 228° Southwest 237 273 6,700 -1,814 Descending Washington Center
Fri 10:36:40 AM 35.7892 -78.7442 223° Southwest 222 255 6,000 -1,895 Descending Washington Center
Fri 10:37:53 AM 35.7350 -78.8161 227° Southwest 231 266 3,700 -1,356 Descending Washington Center
Fri 10:39:06 AM 35.7625 -78.8814 297° West 189 217 2,700 -793 Descending Washington Center
Fri 10:39:54 AM 35.8017 -78.8931 346° North 166 191 2,100 -750 Descending Washington Center

Login

Don't have an account? Register now (free) for customized features, flight alerts, and more!